Terminal Aerodrome Forecast
Issued by NWS

Home | Current Version | Previous Version | Text Only | Print | Product List | Glossary On
Versions: 1 2 3 4 5 6 7 8 9 10 11 12 13 14 15 16 17
000
FTUS45 KLKN 261120
TAFELY
TAF
KELY 261120Z 2612/2712 VRB05KT P6SM VCFG SCT007 BKN100
      TEMPO 2612/2614 2SM BR OVC006
     FM261800 35008KT P6SM -SHRA VCTS OVC040CB
     FM270200 VRB06KT P6SM VCSH BKN040=

USA.gov is the U.S. government's official web portal to all federal, state and local government web resources and services.